Time;durP1;ratioP1;P1;durP2;ratioP2;P2;SDS_P1;SDS_P2;PMS_P1;PMS_P2;Temp;Humidity;BMP_temperature;BMP_pressure;BME280_temperature;BME280_humidity;BME280_pressure;Samples;Min_cycle;Max_cycle;Signal;HPM_P1;HPM_P2
2021/07/27 00:01:20;;;;;;;8.30;5.55;;;;;;;21.15;59.20;100268.15;1659155;83;26389;-82
2021/07/27 00:03:46;;;;;;;6.42;5.28;;;;;;;21.08;59.28;100270.59;1661458;83;25927;-82
2021/07/27 00:06:12;;;;;;;9.38;5.72;;;;;;;21.01;59.46;100271.66;1685056;83;26095;-82
2021/07/27 00:08:39;;;;;;;9.90;5.55;;;;;;;20.97;59.52;100277.03;1660276;83;25838;-82
2021/07/27 00:11:09;;;;;;;6.55;5.37;;;;;;;20.94;59.55;100284.63;1694693;81;27407;-82
2021/07/27 00:13:37;;;;;;;6.97;5.12;;;;;;;20.90;59.71;100284.55;1698371;81;26486;-81
2021/07/27 00:16:04;;;;;;;13.22;5.53;;;;;;;20.88;59.83;100280.60;1692295;81;25854;-82
2021/07/27 00:18:31;;;;;;;8.55;5.53;;;;;;;20.89;59.91;100280.97;1663726;83;26120;-82
2021/07/27 00:21:01;;;;;;;5.78;5.17;;;;;;;20.90;59.97;100285.41;1662315;83;26481;-82
2021/07/27 00:23:26;;;;;;;7.87;5.35;;;;;;;20.90;60.04;100288.64;1667184;82;27370;-82
2021/07/27 00:25:52;;;;;;;6.55;5.85;;;;;;;20.88;60.09;100290.14;1729515;80;25408;-82
2021/07/27 00:28:18;;;;;;;9.30;6.53;;;;;;;20.84;60.23;100281.89;1737299;80;25454;-82
2021/07/27 00:30:45;;;;;;;8.25;6.53;;;;;;;20.84;60.34;100281.03;1726624;80;26420;-82
2021/07/27 00:33:11;;;;;;;12.23;5.80;;;;;;;20.80;60.34;100283.70;1730134;80;25814;-82
2021/07/27 00:35:37;;;;;;;8.35;5.72;;;;;;;20.74;60.46;100275.09;1736039;80;27380;-82
2021/07/27 00:38:09;;;;;;;9.08;6.00;;;;;;;20.71;60.53;100277.23;1728280;80;26656;-82
2021/07/27 00:40:41;;;;;;;9.58;6.60;;;;;;;20.67;60.69;100288.05;1715763;80;25857;-82
2021/07/27 00:43:14;;;;;;;9.80;6.30;;;;;;;20.61;60.80;100288.11;1726563;80;25787;-82
2021/07/27 00:45:42;;;;;;;9.30;6.12;;;;;;;20.56;60.90;100284.08;1732516;80;25717;-81
2021/07/27 00:48:09;;;;;;;7.83;6.00;;;;;;;20.52;61.04;100281.27;1686944;82;27431;-82
2021/07/27 00:50:36;;;;;;;7.17;5.75;;;;;;;20.46;61.10;100271.80;1728576;80;25863;-81
2021/07/27 00:53:04;;;;;;;9.38;7.10;;;;;;;20.41;61.28;100278.16;1726415;80;25797;-81
2021/07/27 00:55:31;;;;;;;7.97;7.00;;;;;;;20.30;61.48;100268.20;1723976;80;26354;-82
2021/07/27 00:57:57;;;;;;;13.78;7.15;;;;;;;20.36;61.60;100281.27;1725280;80;26487;-82
2021/07/27 01:00:25;;;;;;;10.18;6.70;;;;;;;20.36;61.73;100279.91;1729919;80;28170;-82
2021/07/27 01:02:52;;;;;;;12.93;6.95;;;;;;;20.35;61.75;100280.04;1727999;80;26451;-81
2021/07/27 01:05:18;;;;;;;13.45;7.12;;;;;;;20.32;61.91;100282.53;1728993;80;25801;-81
2021/07/27 01:07:44;;;;;;;10.35;7.33;;;;;;;20.32;62.04;100280.31;1725961;80;26475;-81
2021/07/27 01:10:15;;;;;;;12.78;7.87;;;;;;;20.30;62.14;100280.45;1731786;80;26427;-82
2021/07/27 01:12:41;;;;;;;12.33;7.45;;;;;;;20.26;62.25;100272.20;1740270;80;27446;-82
2021/07/27 01:15:08;;;;;;;12.65;7.37;;;;;;;20.20;62.33;100269.16;1745296;80;25844;-81
2021/07/27 01:17:34;;;;;;;13.15;8.43;;;;;;;20.16;62.52;100268.58;1734873;80;25966;-81
2021/07/27 01:20:11;;;;;;;11.95;7.85;;;;;;;20.12;62.66;100264.41;1717683;80;26127;-82
2021/07/27 01:42:45;;;;;;;10.28;7.78;;;;;;;19.73;63.86;100278.30;1737017;80;26416;-81
2021/07/27 01:44:21;;;;;;;10.68;7.45;;;;;;;19.67;64.01;100275.63;1720949;80;25762;-82
2021/07/27 01:46:51;;;;;;;14.05;7.47;;;;;;;19.63;64.19;100273.30;1744368;80;26332;-82
2021/07/27 01:49:16;;;;;;;14.68;7.83;;;;;;;19.60;64.28;100266.77;1738505;80;25727;-83
2021/07/27 01:51:44;;;;;;;18.17;8.45;;;;;;;19.56;64.37;100271.61;1743790;80;27476;-82
2021/07/27 01:54:13;;;;;;;10.15;7.80;;;;;;;19.50;64.53;100272.61;1725251;80;26077;-82
2021/07/27 01:56:38;;;;;;;13.05;7.97;;;;;;;19.44;64.73;100275.36;1733498;80;25893;-82
2021/07/27 01:59:04;;;;;;;18.35;8.43;;;;;;;19.42;64.92;100277.34;1733301;80;26663;-82
2021/07/27 02:01:31;;;;;;;14.53;9.00;;;;;;;19.39;65.05;100272.17;1735873;80;25723;-82
2021/07/27 02:03:57;;;;;;;12.45;8.40;;;;;;;19.36;65.12;100275.16;1742637;80;28092;-82
2021/07/27 02:06:22;;;;;;;14.35;9.10;;;;;;;19.32;65.25;100279.98;1734961;80;25907;-82
2021/07/27 02:08:49;;;;;;;12.23;8.70;;;;;;;19.29;65.39;100277.53;1735198;80;26139;-82
2021/07/27 02:11:17;;;;;;;13.32;8.60;;;;;;;19.27;65.54;100272.73;1739552;80;25811;-82
2021/07/27 02:13:47;;;;;;;10.82;8.73;;;;;;;19.27;65.65;100274.58;1704277;82;26558;-83
2021/07/27 02:16:13;;;;;;;18.45;9.10;;;;;;;19.21;65.70;100266.95;1699565;82;27470;-82
2021/07/27 02:18:39;;;;;;;19.30;9.45;;;;;;;19.20;65.89;100266.09;1682915;82;25505;-82
2021/07/27 02:21:06;;;;;;;11.75;9.30;;;;;;;19.18;66.01;100264.50;1737950;80;25856;-83
2021/07/27 02:23:32;;;;;;;23.40;9.85;;;;;;;19.14;66.18;100278.34;1737621;80;26120;-82
2021/07/27 02:25:59;;;;;;;15.75;9.08;;;;;;;19.09;66.21;100277.87;1721935;81;25829;-82
2021/07/27 02:28:25;;;;;;;21.73;9.65;;;;;;;19.05;66.41;100275.54;1719457;80;27674;-82
2021/07/27 02:31:00;;;;;;;13.90;10.15;;;;;;;19.03;66.49;100281.10;1719294;81;25804;-82
2021/07/27 02:33:25;;;;;;;14.78;9.33;;;;;;;18.99;66.58;100278.28;1719753;80;25897;-82
2021/07/27 02:35:52;;;;;;;17.50;9.40;;;;;;;18.95;66.76;100275.45;1726000;81;25882;-82
2021/07/27 02:38:19;;;;;;;15.45;9.15;;;;;;;18.92;66.92;100278.42;1727012;81;25464;-82
2021/07/27 02:40:45;;;;;;;17.85;9.83;;;;;;;18.90;67.05;100279.55;1711931;82;27549;-82
2021/07/27 02:43:14;;;;;;;16.35;8.70;;;;;;;18.90;67.10;100282.27;1711033;82;26436;-82
2021/07/27 02:45:40;;;;;;;16.25;10.05;;;;;;;18.87;67.23;100276.59;1715070;82;25827;-82
2021/07/27 02:48:06;;;;;;;13.70;8.83;;;;;;;18.86;67.39;100281.66;1708132;82;26419;-82
2021/07/27 02:50:41;;;;;;;16.67;9.15;;;;;;;18.86;67.43;100293.02;1721678;80;25346;-82
2021/07/27 02:53:06;;;;;;;13.10;9.00;;;;;;;18.83;67.49;100285.98;1717186;81;27506;-82
2021/07/27 02:55:37;;;;;;;15.78;8.45;;;;;;;18.81;67.65;100282.53;1725129;80;25899;-82
2021/07/27 02:58:12;;;;;;;11.80;9.50;;;;;;;18.80;67.69;100288.95;1714611;81;26395;-82
2021/07/27 03:00:38;;;;;;;18.10;9.03;;;;;;;18.80;67.76;100294.38;1717614;81;26062;-82
2021/07/27 03:03:04;;;;;;;14.18;9.63;;;;;;;18.79;67.83;100283.16;1717939;80;26605;-82
2021/07/27 03:05:30;;;;;;;17.65;9.23;;;;;;;18.76;67.90;100295.13;1719637;81;27488;-82
2021/07/27 03:07:58;;;;;;;15.53;8.13;;;;;;;18.75;68.04;100298.84;1713208;80;25823;-82
2021/07/27 03:10:25;;;;;;;15.93;8.60;;;;;;;18.75;68.15;100299.33;1727062;80;25760;-83
2021/07/27 03:12:56;;;;;;;13.08;9.45;;;;;;;18.74;68.15;100295.76;1721456;81;26718;-82
2021/07/27 03:15:24;;;;;;;;;;;;;;;18.72;68.31;100293.66;1722427;81;25908;-82
2021/07/27 03:17:56;;;;;;;12.95;9.35;;;;;;;18.70;68.33;100292.06;1719447;80;28531;-82
2021/07/27 03:20:25;;;;;;;17.23;9.15;;;;;;;18.64;68.42;100292.08;1712591;81;26462;-82
2021/07/27 03:22:52;;;;;;;16.35;9.15;;;;;;;18.63;68.54;100290.35;1710520;80;26522;-81
2021/07/27 03:25:19;;;;;;;14.68;10.78;;;;;;;18.63;68.59;100281.34;1716401;81;25779;-82
2021/07/27 03:27:47;;;;;;;14.68;9.73;;;;;;;18.62;68.69;100285.91;1727223;80;25815;-81
2021/07/27 03:30:15;;;;;;;18.25;10.00;;;;;;;18.63;68.79;100289.48;1727798;80;27367;-83
2021/07/27 03:32:43;;;;;;;16.15;9.90;;;;;;;18.63;68.87;100293.56;1729257;80;25920;-82
2021/07/27 03:35:15;;;;;;;13.90;9.43;;;;;;;18.63;68.90;100290.84;1728295;80;25894;-82
2021/07/27 03:37:42;;;;;;;15.35;10.18;;;;;;;18.62;68.97;100290.48;1726795;80;26462;-82
2021/07/27 03:40:09;;;;;;;17.12;9.93;;;;;;;18.64;69.16;100295.28;1726017;80;25841;-82
2021/07/27 03:42:35;;;;;;;15.83;10.25;;;;;;;18.66;69.19;100292.81;1718642;80;27389;-82
2021/07/27 03:45:01;;;;;;;20.40;10.32;;;;;;;18.67;69.19;100294.53;1726397;80;25766;-82
2021/07/27 03:47:28;;;;;;;16.67;10.82;;;;;;;18.69;69.35;100294.41;1729912;80;25882;-82
2021/07/27 03:49:54;;;;;;;17.67;9.70;;;;;;;18.68;69.36;100294.05;1727305;80;25913;-82
2021/07/27 03:52:20;;;;;;;18.85;10.38;;;;;;;18.66;69.33;100301.45;1726086;80;25799;-82
2021/07/27 03:54:46;;;;;;;17.17;11.48;;;;;;;18.67;69.45;100301.81;1720262;80;28044;-82
2021/07/27 03:57:13;;;;;;;19.75;10.75;;;;;;;18.67;69.52;100308.61;1725571;80;25849;-83
2021/07/27 03:59:39;;;;;;;19.92;10.65;;;;;;;18.67;69.65;100309.47;1721880;80;26458;-82
2021/07/27 04:02:05;;;;;;;21.23;11.30;;;;;;;18.67;69.67;100312.68;1726822;80;26446;-82
2021/07/27 04:04:34;;;;;;;20.90;12.35;;;;;;;18.66;69.72;100319.09;1719498;80;25890;-82
2021/07/27 04:06:59;;;;;;;22.77;13.22;;;;;;;18.67;69.86;100327.61;1729898;80;27549;-82
2021/07/27 04:09:25;;;;;;;21.97;16.50;;;;;;;18.71;69.94;100329.08;1728703;80;26566;-83
2021/07/27 04:11:51;;;;;;;29.75;15.38;;;;;;;18.71;69.91;100329.08;1724874;80;25815;-82
2021/07/27 04:14:17;;;;;;;20.43;13.88;;;;;;;18.67;69.85;100328.47;1726798;80;26557;-83
2021/07/27 04:16:44;;;;;;;25.45;15.88;;;;;;;18.68;70.01;100346.98;1731286;80;25786;-82
2021/07/27 04:19:10;;;;;;;28.98;14.80;;;;;;;18.67;69.97;100340.69;1724494;80;27453;-82
2021/07/27 04:21:36;;;;;;;21.07;14.85;;;;;;;18.67;70.04;100345.26;1717515;80;26523;-82
2021/07/27 04:24:04;;;;;;;27.32;14.78;;;;;;;18.66;70.11;100349.82;1721184;80;25802;-82
2021/07/27 04:26:30;;;;;;;19.35;14.07;;;;;;;18.70;70.21;100358.58;1733842;81;25877;-82
2021/07/27 04:28:56;;;;;;;19.98;14.75;;;;;;;18.73;70.26;100356.97;1739156;80;25696;-82
2021/07/27 04:31:23;;;;;;;21.97;14.05;;;;;;;18.73;70.17;100363.77;1722510;80;27578;-81
2021/07/27 04:33:49;;;;;;;22.13;14.65;;;;;;;18.72;70.27;100364.25;1704553;82;25819;-79
2021/07/27 04:36:15;;;;;;;24.30;16.73;;;;;;;18.73;70.26;100370.05;1722495;81;25838;-80
2021/07/27 04:38:40;;;;;;;22.77;16.50;;;;;;;18.73;70.32;100371.41;1738061;80;26408;-81
2021/07/27 04:41:11;;;;;;;23.62;16.95;;;;;;;18.72;70.29;100370.18;1725903;81;25957;-81
2021/07/27 04:43:38;;;;;;;20.20;15.65;;;;;;;18.72;70.48;100372.41;1734362;80;27470;-81
2021/07/27 04:46:06;;;;;;;24.37;15.95;;;;;;;18.77;70.60;100367.95;1733570;81;25909;-79
2021/07/27 04:48:33;;;;;;;22.67;16.20;;;;;;;18.88;70.71;100365.22;1735320;80;26368;-79
2021/07/27 04:50:59;;;;;;;25.40;16.42;;;;;;;19.01;70.73;100355.56;1741490;80;25873;-78
2021/07/27 04:53:26;;;;;;;19.27;14.65;;;;;;;19.11;70.67;100351.95;1734191;80;25821;-77
2021/07/27 04:56:01;;;;;;;20.40;14.50;;;;;;;19.25;70.72;100354.01;1735755;80;27483;-80
2021/07/27 04:58:27;;;;;;;18.10;13.13;;;;;;;19.37;70.64;100357.91;1726485;80;25371;-81
2021/07/27 05:00:55;;;;;;;17.95;11.53;;;;;;;19.49;70.69;100360.09;1741004;81;25371;-80
2021/07/27 05:03:21;;;;;;;17.62;11.65;;;;;;;19.66;70.71;100360.91;1726506;80;26259;-80
2021/07/27 05:05:47;;;;;;;19.62;12.15;;;;;;;19.82;70.60;100360.45;1741535;80;25860;-80
2021/07/27 05:08:15;;;;;;;23.62;11.88;;;;;;;19.92;70.57;100357.80;1734742;80;28103;-80
2021/07/27 05:10:42;;;;;;;20.25;11.25;;;;;;;20.07;70.50;100364.62;1740284;80;26581;-80
2021/07/27 05:13:09;;;;;;;17.07;9.85;;;;;;;20.15;70.32;100361.23;1725335;81;25548;-80
2021/07/27 05:15:35;;;;;;;22.42;10.10;;;;;;;20.19;70.25;100355.89;1742720;80;25806;-80
2021/07/27 05:18:04;;;;;;;20.23;9.65;;;;;;;20.23;70.19;100360.92;1736033;80;25785;-81
2021/07/27 05:20:30;;;;;;;14.78;8.88;;;;;;;20.26;70.10;100351.63;1737545;80;27462;-80
2021/07/27 05:22:56;;;;;;;14.05;8.38;;;;;;;20.31;70.02;100354.80;1707998;82;25881;-81
2021/07/27 05:25:23;;;;;;;19.77;8.80;;;;;;;20.33;69.92;100355.03;1710550;82;25548;-80
2021/07/27 05:27:49;;;;;;;11.78;7.72;;;;;;;20.35;69.80;100351.67;1722172;82;26435;-81
2021/07/27 05:30:16;;;;;;;12.80;8.55;;;;;;;20.38;69.72;100355.52;1721688;81;25888;-80
2021/07/27 05:32:45;;;;;;;14.03;7.95;;;;;;;20.40;69.64;100354.88;1714920;81;27446;-77
2021/07/27 05:35:11;;;;;;;15.68;8.63;;;;;;;20.43;69.54;100355.11;1727143;80;25779;-77
2021/07/27 05:37:37;;;;;;;19.82;8.70;;;;;;;20.46;69.45;100353.97;1719534;81;25668;-78
2021/07/27 05:40:05;;;;;;;14.93;8.38;;;;;;;20.49;69.39;100353.70;1719011;81;25733;-77
2021/07/27 05:42:30;;;;;;;14.45;8.28;;;;;;;20.53;69.32;100357.88;1708220;81;25795;-77
2021/07/27 05:44:56;;;;;;;11.50;8.08;;;;;;;20.59;69.29;100358.19;1727706;80;27380;-79
2021/07/27 05:47:22;;;;;;;13.32;8.03;;;;;;;20.65;69.20;100354.91;1725254;80;26258;-78
2021/07/27 05:49:48;;;;;;;15.28;8.18;;;;;;;20.77;69.14;100361.12;1724819;80;25743;-78
2021/07/27 05:52:14;;;;;;;10.78;7.70;;;;;;;20.83;69.04;100361.89;1734964;80;26790;-79
2021/07/27 05:54:40;;;;;;;14.68;8.05;;;;;;;20.90;68.96;100364.92;1722713;80;26485;-78
2021/07/27 05:57:13;;;;;;;12.35;7.60;;;;;;;20.93;68.86;100366.00;1730365;81;27416;-79
2021/07/27 05:59:42;;;;;;;11.53;7.50;;;;;;;20.94;68.77;100366.37;1715529;80;43921;-78
2021/07/27 06:02:19;;;;;;;17.98;8.53;;;;;;;20.98;68.74;100361.86;1729984;80;25831;-78
2021/07/27 06:04:41;;;;;;;24.35;10.05;;;;;;;21.03;68.63;100363.66;1726454;80;25909;-81
2021/07/27 06:07:07;;;;;;;15.65;8.40;;;;;;;21.08;68.54;100365.47;1724379;80;26627;-81
2021/07/27 06:09:33;;;;;;;15.48;8.20;;;;;;;21.12;68.47;100367.91;1733324;80;27363;-80
2021/07/27 06:11:59;;;;;;;16.55;8.40;;;;;;;21.14;68.39;100365.41;1726326;80;25824;-77
2021/07/27 06:14:24;;;;;;;15.70;7.83;;;;;;;21.15;68.33;100360.31;1714676;81;25787;-78
2021/07/27 06:16:50;;;;;;;18.07;7.97;;;;;;;21.18;68.21;100361.90;1708530;81;25736;-78
2021/07/27 06:19:16;;;;;;;22.48;7.97;;;;;;;21.22;68.20;100369.69;1721983;81;26177;-78
2021/07/27 06:21:42;;;;;;;13.20;8.53;;;;;;;21.27;68.06;100366.53;1727194;80;28148;-77
2021/07/27 06:24:10;;;;;;;15.18;8.03;;;;;;;21.28;67.98;100373.70;1723394;81;25917;-77
2021/07/27 06:26:38;;;;;;;17.25;9.05;;;;;;;21.32;67.89;100368.33;1707056;80;25855;-77
2021/07/27 06:29:05;;;;;;;22.70;8.95;;;;;;;21.37;67.84;100368.77;1693758;81;25867;-78
2021/07/27 06:31:32;;;;;;;18.20;8.45;;;;;;;21.46;67.74;100365.69;1681931;82;25789;-79
2021/07/27 06:33:58;;;;;;;17.92;7.87;;;;;;;21.50;67.60;100367.13;1679647;82;27476;-79
2021/07/27 06:36:25;;;;;;;19.55;8.28;;;;;;;21.54;67.48;100369.92;1683130;83;25883;-77
2021/07/27 06:38:50;;;;;;;10.75;7.00;;;;;;;21.60;67.37;100372.08;1705496;81;25724;-76
2021/07/27 06:41:16;;;;;;;21.37;7.83;;;;;;;21.69;67.30;100370.71;1701762;81;26513;-80
2021/07/27 06:43:43;;;;;;;13.48;7.67;;;;;;;21.78;67.11;100370.34;1686401;81;25962;-73
2021/07/27 06:46:09;;;;;;;23.77;7.12;;;;;;;21.85;66.98;100371.99;1702144;81;27393;-74
2021/07/27 06:48:35;;;;;;;20.43;7.60;;;;;;;21.99;66.90;100374.27;1692539;81;25856;-81
2021/07/27 06:51:09;;;;;;;13.72;6.83;;;;;;;22.13;66.69;100377.94;1695453;81;25833;-79
2021/07/27 06:53:36;;;;;;;16.67;7.55;;;;;;;22.22;66.48;100372.10;1692374;82;25824;-75
2021/07/27 06:56:03;;;;;;;25.50;7.05;;;;;;;22.28;66.27;100369.64;1674872;82;25868;-73
2021/07/27 06:58:29;;;;;;;13.45;7.17;;;;;;;22.38;66.14;100367.38;1703455;81;27594;-74
2021/07/27 07:00:54;;;;;;;10.38;6.30;;;;;;;22.47;66.04;100370.59;1697204;81;25751;-74
2021/07/27 07:03:20;;;;;;;20.00;7.90;;;;;;;22.53;65.87;100375.45;1700186;81;25756;-75
2021/07/27 07:05:46;;;;;;;15.15;7.17;;;;;;;22.58;65.63;100381.33;1680813;82;25889;-74
2021/07/27 07:08:12;;;;;;;13.13;6.37;;;;;;;22.59;65.45;100383.05;1689714;82;26075;-74
2021/07/27 07:10:38;;;;;;;20.68;7.12;;;;;;;22.62;65.38;100378.14;1685692;80;28100;-74
2021/07/27 07:13:03;;;;;;;12.35;6.00;;;;;;;22.70;65.19;100384.22;1656387;83;26037;-74
2021/07/27 07:15:29;;;;;;;10.58;6.37;;;;;;;22.76;65.05;100386.35;1679266;83;26375;-75
2021/07/27 07:17:55;;;;;;;12.88;6.20;;;;;;;22.85;64.98;100380.02;1689966;82;26381;-76
2021/07/27 07:20:21;;;;;;;19.42;5.83;;;;;;;22.97;64.79;100379.30;1696113;82;25774;-75
2021/07/27 07:22:47;;;;;;;11.33;6.65;;;;;;;23.07;64.66;100379.25;1686257;82;27413;-78
2021/07/27 07:25:12;;;;;;;11.63;6.42;;;;;;;23.17;64.51;100380.05;1690766;82;25858;-78
2021/07/27 07:27:38;;;;;;;14.47;6.12;;;;;;;23.27;64.33;100382.21;1708005;81;25861;-76
2021/07/27 07:30:06;;;;;;;14.50;5.53;;;;;;;23.35;64.17;100378.70;1740658;80;26309;-76
2021/07/27 07:32:32;;;;;;;14.13;6.12;;;;;;;23.45;63.99;100382.20;1743238;80;25990;-76
2021/07/27 07:34:59;;;;;;;12.75;5.87;;;;;;;23.54;63.79;100382.16;1741232;80;27987;-77
2021/07/27 07:37:25;;;;;;;10.70;7.30;;;;;;;23.61;63.48;100381.88;1738929;80;25816;-76
2021/07/27 07:39:50;;;;;;;10.15;6.30;;;;;;;23.62;63.29;100378.12;1743169;80;25747;-76
2021/07/27 07:42:16;;;;;;;11.63;5.65;;;;;;;23.65;63.10;100375.59;1738703;80;25812;-76
2021/07/27 07:44:42;;;;;;;11.70;5.30;;;;;;;23.71;62.92;100380.43;1738651;80;26603;-77
2021/07/27 07:47:08;;;;;;;9.30;5.37;;;;;;;23.80;62.81;100375.89;1758034;80;28266;-77
2021/07/27 07:49:34;;;;;;;11.50;5.58;;;;;;;23.92;62.52;100374.11;1748136;80;25702;-75
2021/07/27 07:52:01;;;;;;;10.60;5.10;;;;;;;24.03;62.17;100377.61;1751345;80;26598;-75
2021/07/27 07:54:27;;;;;;;9.90;5.08;;;;;;;24.09;61.93;100372.36;1729292;80;26332;-75
2021/07/27 07:56:53;;;;;;;9.68;4.80;;;;;;;24.14;61.71;100367.77;1736691;80;25833;-74
2021/07/27 07:59:19;;;;;;;7.25;4.30;;;;;;;24.21;61.40;100368.34;1740702;80;27504;-74
2021/07/27 08:01:48;;;;;;;13.93;5.00;;;;;;;24.26;61.21;100366.52;1750254;80;25856;-75
2021/07/27 08:04:17;;;;;;;7.15;5.00;;;;;;;24.33;61.01;100372.20;1744244;80;25964;-74
2021/07/27 08:06:43;;;;;;;9.45;4.40;;;;;;;24.41;60.78;100377.73;1743577;80;25848;-75
2021/07/27 08:09:08;;;;;;;11.90;4.95;;;;;;;24.51;60.49;100368.89;1742354;80;25899;-75
2021/07/27 08:11:34;;;;;;;17.60;5.33;;;;;;;24.53;60.07;100365.48;1733932;80;27476;-75
2021/07/27 08:14:00;;;;;;;12.93;5.12;;;;;;;24.57;59.99;100373.72;1749683;80;25778;-78
2021/07/27 08:16:26;;;;;;;7.95;5.25;;;;;;;24.64;59.59;100372.56;1738866;80;25872;-78
2021/07/27 08:18:54;;;;;;;8.93;4.22;;;;;;;24.67;59.37;100377.20;1739839;80;26468;-79
2021/07/27 08:21:26;;;;;;;11.73;4.03;;;;;;;24.68;58.82;100369.84;1743195;80;25838;-79
2021/07/27 08:23:52;;;;;;;9.93;4.37;;;;;;;24.70;58.58;100378.24;1737603;80;27565;-77
2021/07/27 08:26:18;;;;;;;6.08;3.65;;;;;;;24.77;58.32;100371.08;1737000;80;25850;-77
2021/07/27 08:28:46;;;;;;;14.03;5.25;;;;;;;24.84;57.96;100372.14;1696879;82;25836;-80
2021/07/27 08:31:16;;;;;;;12.00;4.45;;;;;;;24.91;57.57;100368.23;1694134;82;25802;-80
2021/07/27 08:33:42;;;;;;;11.97;4.53;;;;;;;24.99;57.40;100369.66;1698532;82;33068;-79
2021/07/27 08:36:09;;;;;;;18.67;5.00;;;;;;;25.04;57.16;100375.51;1724890;80;27361;-79
2021/07/27 08:38:35;;;;;;;10.60;4.72;;;;;;;25.10;56.77;100367.13;1730508;80;25776;-73
2021/07/27 08:41:06;;;;;;;9.83;4.60;;;;;;;25.13;55.92;100371.77;1725111;80;26323;-73
2021/07/27 08:43:32;;;;;;;14.38;4.80;;;;;;;25.17;56.04;100373.66;1732356;80;25937;-73
2021/07/27 08:46:00;;;;;;;9.00;4.33;;;;;;;25.22;55.78;100368.02;1723470;80;25359;-73
2021/07/27 08:48:26;;;;;;;13.05;5.05;;;;;;;25.29;55.71;100370.95;1721158;80;27378;-73
2021/07/27 08:50:52;;;;;;;15.72;5.00;;;;;;;25.35;55.46;100374.39;1733179;80;25788;-73
2021/07/27 08:53:19;;;;;;;7.87;5.28;;;;;;;25.44;55.34;100370.64;1685107;82;26476;-73
2021/07/27 08:55:45;;;;;;;9.05;4.62;;;;;;;25.54;55.18;100372.71;1728199;81;25664;-74
2021/07/27 08:58:12;;;;;;;10.80;5.00;;;;;;;25.55;54.78;100374.43;1712613;81;25908;-74
2021/07/27 09:00:37;;;;;;;9.00;4.97;;;;;;;25.54;54.55;100371.86;1722914;80;27433;-75
2021/07/27 09:03:17;;;;;;;9.95;5.62;;;;;;;25.58;54.60;100365.52;1718688;81;25853;-73
2021/07/27 09:05:43;;;;;;;8.10;4.72;;;;;;;25.59;54.49;100371.34;1738514;80;25978;-74
2021/07/27 09:08:10;;;;;;;10.32;5.08;;;;;;;25.60;54.35;100368.95;1702990;81;26206;-74
2021/07/27 09:10:42;;;;;;;10.15;5.60;;;;;;;25.66;54.09;100366.41;1725349;80;25907;-74
2021/07/27 09:13:11;;;;;;;11.75;4.75;;;;;;;25.73;53.58;100370.70;1720007;80;27447;-74
2021/07/27 09:15:43;;;;;;;12.43;5.17;;;;;;;25.81;53.68;100372.94;1730047;80;25762;-74
2021/07/27 09:18:13;;;;;;;12.10;5.60;;;;;;;25.91;53.58;100382.89;1720127;80;25312;-73
2021/07/27 09:20:49;;;;;;;10.25;4.80;;;;;;;25.96;53.36;100370.88;1729023;80;25761;-71
2021/07/27 09:23:19;;;;;;;7.53;4.05;;;;;;;26.01;53.34;100377.54;1721210;80;25894;-72
2021/07/27 09:25:58;;;;;;;19.75;4.55;;;;;;;26.01;52.71;100372.05;1728134;80;28259;-74
2021/07/27 09:28:26;;;;;;;10.38;4.35;;;;;;;26.01;51.91;100364.31;1731462;80;25894;-76
2021/07/27 09:31:01;;;;;;;10.70;4.58;;;;;;;26.19;51.82;100372.71;1733811;80;26521;-76
2021/07/27 09:33:32;;;;;;;9.40;4.08;;;;;;;26.30;51.72;100367.89;1732556;80;26554;-76
2021/07/27 09:35:58;;;;;;;6.40;3.98;;;;;;;26.43;51.80;100366.86;1736223;80;25817;-74
2021/07/27 09:38:26;;;;;;;12.37;4.65;;;;;;;26.50;51.62;100359.63;1745018;80;27468;-75
2021/07/27 09:41:00;;;;;;;8.23;4.30;;;;;;;26.54;51.45;100363.74;1745173;80;25855;-75
2021/07/27 09:43:28;;;;;;;13.90;6.03;;;;;;;26.58;51.43;100367.85;1736140;80;25826;-74
2021/07/27 09:46:00;;;;;;;10.68;5.15;;;;;;;26.65;51.39;100368.86;1733576;80;25833;-72
2021/07/27 09:48:26;;;;;;;6.90;3.95;;;;;;;26.80;51.22;100362.96;1718265;81;25847;-72
2021/07/27 09:50:54;;;;;;;9.60;4.20;;;;;;;26.94;51.01;100368.75;1724128;80;27423;-71
2021/07/27 09:53:21;;;;;;;4.12;3.70;;;;;;;27.02;50.47;100372.87;1729692;80;26155;-71
2021/07/27 09:55:48;;;;;;;5.20;3.12;;;;;;;27.00;49.91;100367.55;1733936;80;25866;-72
2021/07/27 09:58:15;;;;;;;32.98;4.28;;;;;;;26.95;49.34;100373.21;1723412;80;26232;-72
2021/07/27 10:01:04;;;;;;;5.70;3.33;;;;;;;26.99;48.84;100360.33;1729774;80;25847;-75
2021/07/27 10:03:41;;;;;;;6.80;3.30;;;;;;;27.07;48.32;100359.44;1737775;80;26902;-73
2021/07/27 10:06:08;;;;;;;6.15;4.00;;;;;;;27.14;47.85;100365.93;1686248;82;26242;-73
2021/07/27 10:08:39;;;;;;;9.93;4.10;;;;;;;27.14;47.63;100353.55;1733902;80;26151;-73
2021/07/27 10:11:08;;;;;;;8.88;4.15;;;;;;;27.24;47.43;100358.30;1741186;80;25765;-77
2021/07/27 10:13:45;;;;;;;14.18;4.47;;;;;;;27.33;47.57;100354.47;1738107;80;26582;-78
2021/07/27 10:16:21;;;;;;;5.25;3.72;;;;;;;27.39;47.67;100361.99;1691993;82;27400;-77
2021/07/27 10:18:47;;;;;;;6.72;3.72;;;;;;;27.42;47.27;100353.89;1736065;80;26464;-73
2021/07/27 10:21:25;;;;;;;7.58;3.77;;;;;;;27.44;47.19;100360.92;1741199;80;25853;-73
2021/07/27 10:23:59;;;;;;;6.75;3.65;;;;;;;27.54;47.03;100362.59;1717774;82;25868;-73
2021/07/27 10:26:32;;;;;;;4.33;3.72;;;;;;;27.64;47.04;100364.61;1740873;80;26423;-77
2021/07/27 10:28:59;;;;;;;6.08;3.92;;;;;;;27.79;46.76;100374.64;1708466;80;27595;-78
2021/07/27 10:31:43;;;;;;;12.93;4.67;;;;;;;27.90;46.68;100362.85;1709337;80;25886;-78
2021/07/27 10:34:12;;;;;;;13.72;3.72;;;;;;;27.94;46.23;100365.05;1705797;81;25767;-78
2021/07/27 10:36:41;;;;;;;12.07;3.75;;;;;;;27.95;46.24;100365.39;1706174;82;25830;-78
2021/07/27 10:39:15;;;;;;;5.72;3.65;;;;;;;27.99;46.25;100361.73;1699060;81;25404;-71
2021/07/27 10:41:50;;;;;;;6.47;3.90;;;;;;;28.09;45.98;100361.81;1708504;81;27541;-72
2021/07/27 10:44:23;;;;;;;15.78;4.53;;;;;;;28.17;45.85;100364.16;1695029;81;25857;-72
2021/07/27 10:46:49;;;;;;;10.95;4.20;;;;;;;28.28;45.82;100356.84;1676508;82;25773;-72
2021/07/27 10:49:25;;;;;;;4.42;3.92;;;;;;;28.46;45.63;100368.89;1693216;83;25874;-76
2021/07/27 10:51:54;;;;;;;6.90;3.62;;;;;;;28.52;45.40;100357.09;1700342;80;25897;-77
2021/07/27 10:54:32;;;;;;;4.53;3.83;;;;;;;28.59;44.92;100359.44;1692258;81;28038;-82
2021/07/27 10:57:06;;;;;;;10.15;4.20;;;;;;;28.48;45.15;100359.37;1704926;82;25892;-74
2021/07/27 10:59:36;;;;;;;6.25;3.87;;;;;;;28.55;44.67;100362.23;1693065;80;25796;-71
2021/07/27 11:02:12;;;;;;;5.47;4.12;;;;;;;28.56;44.71;100363.42;1692606;81;26618;-79
2021/07/27 11:04:38;;;;;;;8.98;4.05;;;;;;;28.63;44.72;100372.62;1694703;82;25754;-80
2021/07/27 11:07:12;;;;;;;4.95;3.92;;;;;;;28.73;44.71;100373.19;1693780;81;27991;-79
2021/07/27 11:09:57;;;;;;;6.00;3.98;;;;;;;28.83;44.36;100367.94;1690450;82;25998;-78
2021/07/27 11:12:28;;;;;;;9.40;3.70;;;;;;;28.84;44.21;100358.61;1689993;81;25812;-71
2021/07/27 11:15:11;;;;;;;11.10;3.72;;;;;;;28.91;44.12;100366.45;1698702;80;25708;-72
2021/07/27 11:17:44;;;;;;;6.05;3.50;;;;;;;28.91;43.02;100365.08;1705323;82;25943;-76
2021/07/27 11:20:12;;;;;;;7.10;3.42;;;;;;;28.92;43.49;100349.70;1684804;81;27455;-75
2021/07/27 11:22:46;;;;;;;4.83;4.00;;;;;;;29.11;43.33;100365.33;1665779;83;25859;-77
2021/07/27 11:25:19;;;;;;;6.35;3.80;;;;;;;29.11;42.58;100355.67;1658953;82;25771;-76
2021/07/27 11:27:46;;;;;;;4.80;4.22;;;;;;;29.03;42.80;100352.50;1712913;80;25842;-78
2021/07/27 11:30:13;;;;;;;10.53;3.70;;;;;;;29.19;42.85;100348.13;1738908;80;25798;-79
2021/07/27 11:32:51;;;;;;;6.22;3.40;;;;;;;29.34;42.85;100356.38;1739326;80;27568;-75
2021/07/27 11:35:24;;;;;;;9.20;3.95;;;;;;;29.41;42.32;100352.63;1735162;80;25809;-77
2021/07/27 11:38:03;;;;;;;5.45;3.60;;;;;;;29.41;41.71;100355.92;1734867;80;25846;-75
2021/07/27 11:40:30;;;;;;;5.92;3.08;;;;;;;29.33;41.78;100351.38;1741068;80;26357;-74
2021/07/27 11:43:06;;;;;;;13.60;3.87;;;;;;;29.36;41.84;100346.84;1739260;80;25698;-79